Time;durP1;ratioP1;P1;durP2;ratioP2;P2;SDS_P1;SDS_P2;PMS_P1;PMS_P2;Temp;Humidity;BMP_temperature;BMP_pressure;BME280_temperature;BME280_humidity;BME280_pressure;Samples;Min_cycle;Max_cycle;Signal;HPM_P1;HPM_P2
2022/10/21 00:02:26;;;;;;;3.55;2.92;;;12.80;56.90;;;11.73;56.59;101219.66;12268472;19;20032;-81
2022/10/21 00:06:28;;;;;;;3.15;2.53;;;12.80;56.60;;;11.76;56.71;101227.34;12259762;19;20045;-80
2022/10/21 00:10:29;;;;;;;3.05;2.55;;;12.80;56.50;;;11.76;56.66;101227.34;12261293;19;20103;-80
2022/10/21 00:14:31;;;;;;;3.28;2.95;;;13.00;56.70;;;11.68;56.73;101201.59;12260976;19;20026;-80
2022/10/21 00:18:35;;;;;;;4.47;2.67;;;12.70;56.70;;;11.69;56.80;101202.44;12259062;19;20021;-79
2022/10/21 00:22:37;;;;;;;3.67;2.90;;;12.80;56.80;;;11.68;56.83;101185.06;12257622;19;20038;-79
2022/10/21 00:26:39;;;;;;;4.80;3.30;;;12.70;56.80;;;11.60;56.90;101179.38;12253935;19;20021;-80
2022/10/21 00:30:43;;;;;;;6.55;3.42;;;12.70;56.80;;;11.54;57.05;101180.53;12257894;19;20010;-79
2022/10/21 00:34:45;;;;;;;4.03;2.95;;;12.70;56.90;;;11.61;56.81;101181.06;12267280;19;20345;-80
2022/10/21 00:38:47;;;;;;;6.75;3.25;;;12.60;57.00;;;11.57;56.87;101174.31;12265445;19;20399;-80
2022/10/21 00:42:49;;;;;;;5.80;2.92;;;12.60;57.10;;;11.62;56.99;101193.22;12263071;19;20010;-79
2022/10/21 00:47:27;;;;;;;4.43;3.13;;;12.60;57.00;;;11.52;57.09;101183.22;12260030;19;20017;-81
2022/10/21 00:51:29;;;;;;;5.30;3.40;;;12.60;57.30;;;11.47;56.94;101177.38;12253390;19;20088;-80
2022/10/21 00:55:36;;;;;;;4.20;2.53;;;12.60;57.30;;;11.51;57.09;101181.53;12257830;19;20014;-81
2022/10/21 00:59:48;;;;;;;5.15;3.10;;;12.60;57.40;;;11.50;57.18;101179.88;12247385;19;20564;-82
2022/10/21 01:03:49;;;;;;;3.22;2.92;;;12.60;57.60;;;11.58;57.27;101184.66;12255871;19;20504;-82
2022/10/21 01:07:51;;;;;;;5.25;3.00;;;12.60;57.40;;;11.57;57.32;101182.16;12246275;19;20491;-80
2022/10/21 01:11:53;;;;;;;4.65;2.90;;;12.60;57.50;;;11.57;57.19;101177.75;12252850;19;20010;-80
2022/10/21 01:16:17;;;;;;;3.45;2.78;;;12.60;57.60;;;11.61;57.36;101186.28;12254111;19;20022;-80
2022/10/21 01:20:46;;;;;;;5.38;3.10;;;12.60;57.60;;;11.65;57.44;101188.66;12256144;19;20018;-81
2022/10/21 01:25:09;;;;;;;4.38;2.95;;;12.70;57.70;;;11.67;57.41;101175.53;12249732;19;20018;-80
2022/10/21 01:29:39;;;;;;;3.72;3.05;;;12.70;57.70;;;11.70;57.35;101173.56;12257744;19;20031;-80
2022/10/21 01:33:53;;;;;;;4.43;3.50;;;12.70;57.60;;;11.61;57.33;101163.63;12253211;19;20107;-80
2022/10/21 01:38:03;;;;;;;3.33;2.75;;;12.70;57.60;;;11.74;57.39;101169.84;12253077;19;20010;-80
2022/10/21 01:42:50;;;;;;;4.50;3.42;;;12.70;57.80;;;11.72;57.54;101163.03;12256698;19;20014;-81
2022/10/21 01:47:20;;;;;;;3.63;2.88;;;12.70;57.70;;;11.66;57.44;101138.03;12253214;19;20067;-82
2022/10/21 01:51:24;;;;;;;3.50;3.00;;;12.70;57.80;;;11.69;57.51;101127.44;12253408;19;20052;-81
2022/10/21 01:55:30;;;;;;;3.15;2.80;;;12.80;57.80;;;11.71;57.60;101120.31;12252069;19;20017;-81
2022/10/21 01:59:32;;;;;;;3.88;3.10;;;12.80;57.80;;;11.78;57.70;101128.69;12250442;19;20019;-81
2022/10/21 02:03:39;;;;;;;3.90;3.00;;;12.80;57.80;;;11.79;57.64;101125.16;12248081;19;20037;-80
2022/10/21 02:07:41;;;;;;;3.58;2.80;;;12.80;57.80;;;11.77;57.61;101100.81;12248259;19;20038;-81
2022/10/21 02:11:49;;;;;;;3.83;2.78;;;12.80;57.90;;;11.74;57.75;101093.16;12252664;19;20014;-82
2022/10/21 02:15:57;;;;;;;3.45;3.05;;;12.80;57.90;;;11.80;57.62;101103.31;12250475;19;20030;-81
2022/10/21 02:20:02;;;;;;;3.80;3.25;;;12.80;57.90;;;11.73;57.66;101076.59;12249256;19;20384;-81
2022/10/21 02:24:18;;;;;;;3.92;2.75;;;12.80;57.90;;;11.87;57.70;101099.44;12249632;19;20018;-81
2022/10/21 02:28:19;;;;;;;;;;;12.90;57.90;;;11.77;57.67;101073.81;12251655;19;20019;-81
2022/10/21 02:32:50;;;;;;;3.83;2.60;;;12.90;57.60;;;11.77;57.89;101064.19;12251092;19;19922;-81
2022/10/21 02:37:02;;;;;;;3.80;3.22;;;12.90;57.90;;;11.85;57.65;101051.53;12246060;19;20026;-80
2022/10/21 02:41:09;;;;;;;5.03;3.13;;;12.90;58.00;;;11.83;57.77;101044.72;12251528;19;20015;-81
2022/10/21 02:45:11;;;;;;;3.95;2.85;;;13.10;58.10;;;11.78;57.96;101037.13;12245808;19;20048;-81
2022/10/21 02:49:13;;;;;;;3.33;2.95;;;12.90;58.00;;;11.82;57.82;101049.09;12249085;19;20031;-80
2022/10/21 02:53:15;;;;;;;5.05;2.88;;;13.10;58.10;;;11.71;57.86;101027.91;12248267;19;20078;-81
2022/10/21 02:57:16;;;;;;;3.97;3.22;;;13.10;58.10;;;11.78;57.97;101021.44;12248824;19;20040;-81
2022/10/21 03:01:18;;;;;;;4.55;3.10;;;13.00;58.20;;;11.83;58.00;101027.25;12250640;19;20023;-81
2022/10/21 03:05:20;;;;;;;7.15;3.65;;;12.90;58.10;;;11.84;57.99;101023.69;12246895;19;20015;-81
2022/10/21 03:09:21;;;;;;;4.15;3.40;;;12.90;58.10;;;11.82;57.98;101012.47;12246597;19;20058;-82
2022/10/21 03:13:23;;;;;;;3.53;3.17;;;12.90;58.20;;;11.81;57.99;101021.25;12249587;19;20014;-81
2022/10/21 03:17:25;;;;;;;4.20;3.38;;;12.90;58.10;;;11.89;58.09;101029.56;12254114;19;20035;-81
2022/10/21 03:21:27;;;;;;;4.97;3.58;;;12.90;58.20;;;11.91;58.17;101022.47;12252530;19;20022;-81
2022/10/21 03:25:28;;;;;;;4.15;3.13;;;12.90;58.30;;;11.92;58.09;101039.84;12257084;19;20022;-82
2022/10/21 03:29:30;;;;;;;4.80;3.13;;;13.00;58.20;;;11.93;58.22;101045.91;12257797;19;20015;-80
2022/10/21 03:33:31;;;;;;;3.88;3.28;;;13.00;58.10;;;11.95;58.20;101042.28;12261052;19;20086;-82
2022/10/21 03:37:33;;;;;;;3.22;2.90;;;13.00;58.20;;;11.92;58.23;101018.91;12254813;19;20044;-82
2022/10/21 03:41:34;;;;;;;3.42;3.13;;;13.00;58.20;;;11.91;58.09;101017.22;12253989;19;20030;-81
2022/10/21 03:45:35;;;;;;;4.28;3.22;;;13.00;58.20;;;11.92;58.17;101012.84;12249174;19;20032;-81
2022/10/21 03:49:37;;;;;;;3.47;3.03;;;12.90;58.00;;;11.90;58.24;100998.97;12255933;19;20014;-81
2022/10/21 03:53:38;;;;;;;6.28;3.60;;;12.90;58.00;;;11.88;58.29;101017.41;12254966;19;20017;-82
2022/10/21 03:57:40;;;;;;;4.88;3.15;;;12.90;58.00;;;11.85;58.30;101020.13;12251892;19;20019;-81
2022/10/21 04:01:41;;;;;;;4.13;3.30;;;12.90;58.00;;;11.83;58.36;101029.88;12260527;19;20630;-82
2022/10/21 04:05:43;;;;;;;3.70;3.25;;;12.90;58.20;;;11.90;58.31;101041.69;12259344;19;20011;-78
2022/10/21 04:09:45;;;;;;;4.43;3.53;;;12.90;58.10;;;11.85;58.29;101014.91;12264747;19;20018;-82
2022/10/21 04:13:47;;;;;;;5.13;3.42;;;12.90;58.20;;;11.85;58.33;101000.97;12264698;19;20018;-83
2022/10/21 04:17:48;;;;;;;4.10;3.28;;;12.90;58.30;;;11.87;58.42;101005.22;12265245;19;20031;-83
2022/10/21 04:21:50;;;;;;;6.22;3.85;;;13.20;58.40;;;11.91;58.32;101016.38;12259600;19;20380;-82
2022/10/21 04:25:52;;;;;;;4.10;3.63;;;12.90;58.30;;;11.90;58.53;100999.81;12254593;19;20027;-82
2022/10/21 04:29:53;;;;;;;4.32;3.35;;;12.90;58.40;;;11.86;58.44;100977.38;12260006;19;20013;-81
2022/10/21 04:33:55;;;;;;;4.38;3.75;;;12.90;58.30;;;11.86;58.20;100966.91;12253539;19;20017;-81
2022/10/21 04:37:59;;;;;;;3.65;3.22;;;12.90;58.30;;;11.88;58.39;100979.91;12255351;19;20014;-80
2022/10/21 04:42:00;;;;;;;3.67;3.38;;;12.90;58.30;;;11.88;58.55;100969.44;12254927;19;20373;-81
2022/10/21 04:46:03;;;;;;;3.92;3.53;;;13.10;58.40;;;11.87;58.53;100960.75;12253735;19;20022;-80
2022/10/21 04:50:05;;;;;;;4.05;3.58;;;12.90;58.30;;;11.87;58.57;100955.50;12255696;19;20030;-81
2022/10/21 04:54:07;;;;;;;5.75;3.97;;;12.90;58.40;;;11.87;58.43;100942.44;12255426;19;20026;-81
2022/10/21 04:58:09;;;;;;;4.25;3.83;;;12.90;58.50;;;11.81;58.62;100934.91;12254950;19;20014;-81
2022/10/21 05:02:11;;;;;;;5.60;3.90;;;12.90;58.50;;;11.80;58.69;100911.44;12246721;19;20405;-82
2022/10/21 05:06:12;;;;;;;6.60;3.95;;;13.00;58.50;;;11.86;58.72;100919.81;12252703;19;20019;-81
2022/10/21 05:10:14;;;;;;;3.88;3.38;;;12.90;58.50;;;11.83;58.73;100919.97;12256038;19;20010;-81
2022/10/21 05:14:15;;;;;;;5.03;3.78;;;12.80;58.60;;;11.86;58.73;100898.88;12244412;19;20029;-82
2022/10/21 05:18:17;;;;;;;5.75;3.95;;;12.90;58.70;;;11.80;58.78;100888.75;12255438;19;20051;-82
2022/10/21 05:22:18;;;;;;;5.82;3.85;;;12.80;58.80;;;11.80;58.56;100893.97;12253060;19;20029;-81
2022/10/21 05:26:20;;;;;;;4.47;3.38;;;12.90;58.80;;;11.85;58.65;100891.91;12253091;19;20015;-81
2022/10/21 05:30:21;;;;;;;6.40;4.10;;;12.80;58.70;;;11.52;58.72;100845.84;12252531;19;20018;-82
2022/10/21 05:34:23;;;;;;;4.65;4.13;;;12.90;58.80;;;11.84;58.85;100894.63;12252381;19;20052;-82
2022/10/21 05:38:24;;;;;;;4.47;4.07;;;13.10;59.00;;;11.80;58.75;100882.66;12247897;19;20014;-80
2022/10/21 05:42:26;;;;;;;6.97;4.15;;;13.10;59.10;;;11.91;58.94;100891.63;12254802;19;20019;-81
2022/10/21 05:46:27;;;;;;;4.30;3.90;;;12.90;59.30;;;11.91;58.90;100881.16;12249911;19;20016;-81
2022/10/21 05:50:29;;;;;;;4.57;4.10;;;12.90;59.00;;;11.92;59.04;100893.28;12252177;19;20134;-82
2022/10/21 05:54:30;;;;;;;4.10;3.60;;;12.90;58.80;;;11.90;59.01;100887.28;12252110;19;20010;-81
2022/10/21 05:58:34;;;;;;;6.43;4.72;;;13.20;58.90;;;11.92;59.07;100895.91;12250537;19;20034;-80
2022/10/21 06:02:35;;;;;;;5.10;3.97;;;13.00;58.90;;;11.98;59.01;100894.69;12249432;19;20018;-81
2022/10/21 06:06:36;;;;;;;5.65;4.07;;;13.10;59.00;;;11.87;59.08;100869.16;12246885;19;20011;-81
2022/10/21 06:10:38;;;;;;;4.80;3.60;;;13.30;59.10;;;12.02;59.05;100895.38;12251399;19;20018;-80
2022/10/21 06:14:39;;;;;;;5.20;4.43;;;13.20;59.00;;;11.94;59.11;100877.50;12249585;19;20031;-80
2022/10/21 06:18:41;;;;;;;3.97;3.60;;;13.00;59.00;;;11.90;59.06;100855.88;12252125;19;20426;-80
2022/10/21 06:22:43;;;;;;;7.00;4.00;;;13.10;59.10;;;11.95;59.06;100859.09;12250472;19;20505;-81
2022/10/21 06:26:49;;;;;;;4.47;4.05;;;13.30;59.20;;;12.07;59.31;100890.69;12247228;19;20011;-81
2022/10/21 06:30:51;;;;;;;4.50;3.97;;;13.10;59.10;;;12.11;59.13;100886.97;12254163;19;20010;-81
2022/10/21 06:34:53;;;;;;;6.43;3.83;;;13.20;59.30;;;12.06;59.15;100865.47;12253267;19;20358;-83
2022/10/21 06:38:54;;;;;;;4.47;4.07;;;13.20;59.20;;;12.05;59.20;100856.78;12252061;19;20485;-82
2022/10/21 06:42:56;;;;;;;5.35;4.20;;;13.20;59.20;;;12.09;59.20;100873.13;12253464;19;20015;-81
2022/10/21 06:46:57;;;;;;;6.50;4.07;;;13.20;59.30;;;12.11;59.42;100879.97;12244926;19;20018;-81
2022/10/21 06:51:09;;;;;;;6.88;4.00;;;13.20;59.40;;;12.27;59.26;100895.59;12271369;19;20014;-81
2022/10/21 06:55:11;;;;;;;5.30;3.90;;;13.30;59.60;;;12.31;59.34;100888.41;12280030;19;20040;-82
2022/10/21 06:59:13;;;;;;;5.85;3.88;;;13.30;59.80;;;12.19;59.46;100871.66;12279110;19;20022;-82
2022/10/21 07:03:15;;;;;;;5.57;3.88;;;13.40;59.60;;;12.31;59.30;100884.03;12277806;19;20025;-82
2022/10/21 07:07:18;;;;;;;4.38;3.55;;;13.70;59.90;;;12.43;59.48;100887.69;12275178;19;20362;-82
2022/10/21 07:15:41;;;;;;;5.82;4.65;;;13.50;59.80;;;12.52;59.62;100902.00;12221325;19;20042;-82
2022/10/21 07:19:42;;;;;;;4.43;3.90;;;13.50;59.80;;;12.54;59.68;100903.59;12270275;19;20015;-81
2022/10/21 07:23:46;;;;;;;7.45;4.55;;;13.80;59.90;;;12.59;59.55;100905.94;12271513;19;20082;-81
2022/10/21 07:27:48;;;;;;;6.18;4.43;;;13.60;59.70;;;12.54;59.56;100884.41;12277490;19;20015;-81
2022/10/21 07:31:50;;;;;;;8.13;5.32;;;13.60;59.70;;;12.67;59.61;100908.94;12278645;19;20496;-82
2022/10/21 07:36:01;;;;;;;6.65;4.90;;;13.70;59.70;;;12.60;59.53;100891.88;12273441;19;20431;-81
2022/10/21 07:40:04;;;;;;;6.43;5.20;;;13.70;59.80;;;12.75;59.60;100904.06;12277261;19;20348;-82
2022/10/21 07:44:07;;;;;;;6.18;5.50;;;13.80;59.90;;;12.78;59.78;100897.78;12272901;19;20003;-80
2022/10/21 07:48:09;;;;;;;9.23;6.47;;;13.80;60.30;;;12.81;59.80;100890.56;12276461;19;20601;-81
2022/10/21 07:52:11;;;;;;;6.90;5.22;;;14.10;60.10;;;12.92;59.86;100895.16;12274620;19;20026;-80
2022/10/21 07:56:30;;;;;;;4.97;4.28;;;14.00;59.90;;;12.78;59.81;100882.91;12268572;19;20453;-80
2022/10/21 08:00:35;;;;;;;4.80;4.32;;;14.00;59.80;;;13.03;59.82;100905.78;12260414;19;20014;-82
2022/10/21 08:04:43;;;;;;;5.00;4.38;;;14.00;59.90;;;13.04;59.67;100883.03;12245394;19;20014;-83
2022/10/21 08:08:50;;;;;;;8.02;4.07;;;14.10;59.80;;;12.59;59.87;100801.97;12255203;19;20021;-81
2022/10/21 08:12:52;;;;;;;4.50;3.92;;;14.10;59.70;;;13.20;59.89;100896.88;12262229;19;20031;-81
2022/10/21 08:16:54;;;;;;;6.57;3.95;;;14.20;59.60;;;13.24;59.83;100880.00;12253756;19;20027;-81
2022/10/21 08:20:56;;;;;;;5.20;4.45;;;14.30;59.60;;;13.16;59.80;100856.06;12255592;19;20010;-80
2022/10/21 08:24:57;;;;;;;4.35;3.67;;;14.30;59.70;;;13.35;59.86;100881.97;12262060;19;20042;-82
2022/10/21 08:29:02;;;;;;;7.22;4.28;;;14.40;59.60;;;13.32;59.85;100868.22;12259837;19;20015;-80
2022/10/21 08:33:04;;;;;;;5.70;4.28;;;14.50;59.50;;;13.39;59.83;100866.88;12265058;19;20011;-82
2022/10/21 08:37:06;;;;;;;7.43;4.75;;;14.50;59.60;;;13.39;59.98;100849.34;12249487;19;20024;-81
2022/10/21 08:41:30;;;;;;;6.35;5.68;;;14.60;59.50;;;13.57;59.85;100863.06;12254726;19;20018;-82
2022/10/21 08:45:44;;;;;;;7.25;5.97;;;14.60;59.40;;;13.59;59.98;100863.81;12256230;19;20377;-81
2022/10/21 08:50:09;;;;;;;6.63;5.00;;;14.70;59.50;;;13.60;60.00;100852.34;12256770;19;20022;-82
2022/10/21 08:54:34;;;;;;;5.82;5.13;;;14.80;59.40;;;13.70;60.03;100839.47;12254255;19;20031;-82
2022/10/21 08:58:36;;;;;;;6.75;4.60;;;14.80;59.50;;;13.88;59.97;100861.00;12259119;19;20023;-82
2022/10/21 09:03:13;;;;;;;9.40;5.43;;;14.90;59.30;;;13.91;59.87;100853.78;12259621;19;20043;-82
2022/10/21 09:07:29;;;;;;;5.47;4.72;;;15.00;59.40;;;13.99;59.94;100849.78;12260029;19;20006;-82
2022/10/21 09:11:59;;;;;;;6.70;4.47;;;15.10;59.30;;;13.97;59.83;100836.78;12261467;19;20028;-82
2022/10/21 09:16:30;;;;;;;7.15;4.53;;;15.10;59.30;;;14.06;59.89;100861.56;12255545;19;20055;-82
2022/10/21 09:20:57;;;;;;;6.65;4.97;;;15.20;59.20;;;14.07;59.83;100837.84;12259170;19;20634;-82
2022/10/21 09:25:20;;;;;;;5.43;4.88;;;15.20;59.20;;;14.21;59.83;100846.56;12251882;19;20441;-83
2022/10/21 09:29:29;;;;;;;4.82;4.35;;;15.30;59.10;;;14.22;59.82;100832.47;12259905;19;20039;-82
2022/10/21 09:33:33;;;;;;;4.70;4.25;;;15.30;59.00;;;14.19;59.84;100811.69;12258327;19;20855;-82
2022/10/21 09:37:42;;;;;;;5.35;4.75;;;15.40;58.80;;;14.26;59.83;100797.19;12253062;19;20015;-82
2022/10/21 09:41:50;;;;;;;5.47;5.00;;;15.40;59.00;;;14.21;59.75;100780.91;12259181;19;20023;-83
2022/10/21 09:45:53;;;;;;;5.50;5.00;;;15.50;59.00;;;14.47;59.87;100813.22;12249982;19;20018;-83
2022/10/21 09:49:59;;;;;;;5.35;4.50;;;15.60;59.00;;;14.58;60.00;100837.00;12251300;19;20372;-83
2022/10/21 09:54:11;;;;;;;5.47;4.95;;;15.70;59.20;;;14.77;59.92;100841.78;12252422;19;20014;-81
2022/10/21 09:58:49;;;;;;;5.45;4.47;;;15.80;59.30;;;14.86;60.07;100832.44;12257345;19;20034;-82
2022/10/21 10:02:51;;;;;;;6.95;5.00;;;15.90;59.20;;;14.96;60.01;100818.50;12255148;19;20019;-82
2022/10/21 10:06:52;;;;;;;5.28;4.53;;;16.10;58.90;;;15.17;59.80;100838.94;12258047;19;20026;-81
2022/10/21 10:11:07;;;;;;;7.07;4.50;;;16.40;58.80;;;15.22;59.97;100829.75;12264776;19;20049;-83
2022/10/21 10:15:31;;;;;;;6.87;4.00;;;16.30;58.70;;;15.28;59.99;100810.03;12261465;19;20013;-82
2022/10/21 10:19:32;;;;;;;5.25;4.72;;;16.40;58.70;;;15.30;59.67;100778.38;12252051;19;20010;-83
2022/10/21 10:24:01;;;;;;;10.02;6.43;;;16.50;58.20;;;15.53;59.76;100802.94;12245377;19;20014;-82
2022/10/21 10:28:18;;;;;;;11.30;6.57;;;16.70;58.10;;;15.52;59.49;100785.50;12249582;19;20018;-82
2022/10/21 10:32:28;;;;;;;22.42;10.25;;;16.70;57.80;;;15.49;59.69;100782.13;12252370;19;20018;-83
2022/10/21 10:36:42;;;;;;;23.75;10.75;;;16.80;57.80;;;15.66;59.37;100795.81;12248971;19;20476;-82
2022/10/21 10:40:44;;;;;;;11.60;7.65;;;16.80;57.70;;;15.55;59.60;100756.31;12254342;19;20014;-83
2022/10/21 10:44:54;;;;;;;9.10;6.43;;;17.10;57.90;;;15.72;59.68;100776.97;12251112;19;20488;-82
2022/10/21 10:49:12;;;;;;;6.78;5.75;;;16.90;58.00;;;15.78;59.55;100767.78;12251324;19;20417;-82
2022/10/21 10:53:37;;;;;;;5.38;4.85;;;16.90;57.80;;;15.83;59.70;100763.81;12253665;19;20058;-82
2022/10/21 10:57:42;;;;;;;5.57;5.03;;;17.00;58.20;;;15.80;59.66;100721.94;12258782;19;20011;-83
2022/10/21 11:02:08;;;;;;;5.75;4.75;;;17.10;58.00;;;16.19;59.61;100755.81;12255055;19;20014;-83
2022/10/21 11:06:17;;;;;;;4.93;4.25;;;17.20;58.10;;;16.26;59.60;100734.16;12252575;19;20011;-82
2022/10/21 11:10:46;;;;;;;6.50;4.13;;;17.40;58.10;;;16.08;59.45;100680.25;12252625;19;20022;-83
2022/10/21 11:14:55;;;;;;;4.03;3.53;;;17.50;58.00;;;16.51;59.69;100742.72;12254609;19;20390;-83
2022/10/21 11:19:34;;;;;;;3.80;3.50;;;17.60;58.00;;;16.61;59.40;100743.69;12251927;19;20024;-83
2022/10/21 11:24:15;;;;;;;6.68;3.92;;;17.70;57.90;;;16.63;59.26;100736.47;12252307;19;20374;-82
2022/10/21 11:28:29;;;;;;;4.40;3.45;;;17.80;57.80;;;16.80;59.32;100729.88;12248565;19;20015;-82
2022/10/21 11:32:52;;;;;;;4.32;3.90;;;18.00;57.70;;;16.75;59.34;100713.56;12250041;19;20014;-82
2022/10/21 11:37:31;;;;;;;3.25;3.03;;;18.00;57.60;;;16.89;59.13;100731.75;12252752;19;20018;-82
2022/10/21 11:41:48;;;;;;;5.45;3.47;;;18.00;57.70;;;16.89;59.19;100715.94;12262646;19;20431;-82
2022/10/21 11:46:17;;;;;;;4.38;3.83;;;18.10;57.80;;;17.06;59.38;100719.81;12256715;19;20019;-82
2022/10/21 11:50:41;;;;;;;5.95;4.07;;;18.20;57.80;;;17.01;59.13;100707.00;12259596;19;20369;-82
2022/10/21 11:55:07;;;;;;;4.55;4.10;;;18.20;57.80;;;17.21;59.30;100737.03;12259220;19;20077;-83
2022/10/21 11:59:30;;;;;;;7.32;5.25;;;18.30;57.50;;;17.31;59.13;100728.31;12263283;19;20015;-83
2022/10/21 12:04:00;;;;;;;5.00;4.50;;;18.40;57.10;;;17.39;59.02;100747.84;12260529;19;20047;-80
2022/10/21 12:08:30;;;;;;;4.97;4.53;;;18.70;57.20;;;17.35;58.81;100732.41;12258870;19;20058;-82
2022/10/21 12:12:38;;;;;;;4.35;3.78;;;18.50;57.00;;;17.39;58.91;100726.75;12259065;19;20029;-81
2022/10/21 12:16:40;;;;;;;4.45;4.05;;;18.50;57.00;;;17.47;58.87;100739.28;12254064;19;20014;-81
2022/10/21 12:20:46;;;;;;;4.40;3.38;;;18.60;56.60;;;17.50;58.89;100727.63;12256635;19;20003;-82
2022/10/21 12:25:12;;;;;;;4.72;3.55;;;18.80;57.00;;;17.32;58.94;100696.53;12252051;19;20034;-81
2022/10/21 12:29:51;;;;;;;7.28;3.58;;;18.60;56.80;;;17.39;58.51;100708.25;12256768;19;20491;-81
2022/10/21 12:33:52;;;;;;;7.10;3.88;;;18.60;56.60;;;17.48;58.51;100725.13;12259576;19;20028;-82
2022/10/21 12:37:54;;;;;;;5.18;3.85;;;18.70;56.30;;;17.58;58.37;100728.66;12247387;19;20018;-81
2022/10/21 12:42:18;;;;;;;4.45;3.90;;;18.60;56.20;;;17.45;58.59;100726.22;12257847;19;20011;-81
2022/10/21 12:46:26;;;;;;;7.53;5.25;;;18.60;56.20;;;17.51;58.51;100724.84;12248228;19;20350;-81
2022/10/21 12:50:30;;;;;;;6.63;4.55;;;18.60;56.40;;;17.53;58.42;100732.66;12258236;19;20018;-82
2022/10/21 12:55:01;;;;;;;5.27;3.70;;;18.50;56.40;;;17.44;58.16;100713.13;12263757;19;20342;-81
2022/10/21 12:59:05;;;;;;;3.60;3.30;;;18.60;56.40;;;17.50;58.44;100717.06;12251055;19;20497;-82
2022/10/21 13:03:18;;;;;;;3.65;3.35;;;18.70;56.80;;;17.57;58.42;100721.69;12251797;19;20464;-80
2022/10/21 13:07:30;;;;;;;4.03;3.20;;;18.60;56.70;;;17.55;58.39;100723.66;12248407;19;20479;-81
2022/10/21 13:11:34;;;;;;;3.47;3.17;;;18.60;56.80;;;17.60;58.48;100716.13;12250724;19;20054;-82
2022/10/21 13:15:46;;;;;;;5.07;3.37;;;18.60;56.80;;;17.51;58.41;100692.34;12249266;19;20042;-81
2022/10/21 13:20:26;;;;;;;3.60;3.28;;;18.60;56.70;;;17.62;58.33;100708.94;12252906;19;20089;-81
2022/10/21 13:24:32;;;;;;;3.30;3.00;;;18.60;56.60;;;17.58;58.23;100696.97;12250812;19;20022;-81
2022/10/21 13:28:34;;;;;;;3.38;3.08;;;18.60;56.70;;;17.60;58.30;100700.28;12249284;19;20007;-81
2022/10/21 13:32:36;;;;;;;6.10;2.92;;;18.80;56.80;;;17.60;58.10;100697.66;12250173;19;20022;-81
2022/10/21 13:36:42;;;;;;;4.15;3.60;;;18.60;56.70;;;17.61;58.04;100699.34;12247532;19;20027;-81
2022/10/21 13:40:55;;;;;;;4.00;3.03;;;18.60;56.80;;;17.58;58.32;100691.69;12245652;19;20027;-81
2022/10/21 13:45:23;;;;;;;5.05;3.08;;;18.60;56.90;;;17.69;58.07;100699.53;12248086;19;20516;-81
2022/10/21 13:49:32;;;;;;;5.30;3.67;;;18.70;56.80;;;17.65;58.18;100694.63;12247470;19;20511;-81
2022/10/21 13:53:44;;;;;;;3.78;2.80;;;18.70;56.70;;;17.70;58.23;100705.66;12248831;19;20025;-81
2022/10/21 13:57:52;;;;;;;5.13;3.17;;;18.70;56.90;;;17.69;58.08;100699.53;12239144;19;20018;-81
2022/10/21 14:01:56;;;;;;;4.90;3.22;;;18.60;56.70;;;17.68;58.27;100705.75;12245959;19;20029;-81
2022/10/21 14:06:00;;;;;;;4.63;2.92;;;18.70;56.90;;;17.58;58.15;100691.69;12237154;19;20406;-81
2022/10/21 14:10:06;;;;;;;5.18;3.50;;;18.60;56.70;;;17.64;58.04;100700.91;12244212;19;20011;-81
2022/10/21 14:14:13;;;;;;;3.47;3.17;;;18.60;56.70;;;17.59;58.04;100693.34;12249590;19;20116;-81
2022/10/21 14:18:35;;;;;;;3.35;2.95;;;18.60;56.80;;;17.57;57.99;100699.72;12249873;19;20018;-81
2022/10/21 14:22:37;;;;;;;3.13;2.90;;;18.70;56.70;;;17.54;57.92;100690.28;12251057;19;20366;-82
2022/10/21 14:26:44;;;;;;;3.50;2.97;;;18.50;56.80;;;17.57;58.13;100695.28;12246853;19;20014;-81
2022/10/21 14:30:48;;;;;;;6.35;3.40;;;18.50;56.80;;;17.53;57.97;100685.97;12243605;19;20011;-82
2022/10/21 14:35:10;;;;;;;4.32;3.40;;;18.50;56.70;;;17.57;57.96;100690.00;12248588;19;20030;-81
2022/10/21 14:39:19;;;;;;;4.95;3.60;;;18.50;56.60;;;17.52;57.84;100686.91;12253256;19;20511;-82
2022/10/21 14:43:38;;;;;;;3.67;3.20;;;18.50;56.50;;;17.50;57.85;100678.31;12247775;19;20282;-82
2022/10/21 14:47:40;;;;;;;4.28;3.17;;;18.50;56.70;;;17.51;57.84;100672.06;12250641;19;20519;-80
2022/10/21 14:51:42;;;;;;;3.47;3.17;;;18.50;56.70;;;17.54;57.80;100674.44;12255703;19;20031;-82
2022/10/21 14:55:46;;;;;;;4.13;3.20;;;18.50;56.80;;;17.56;57.99;100669.84;12246795;19;20043;-81
2022/10/21 14:59:50;;;;;;;6.35;2.72;;;18.40;56.80;;;17.27;57.97;100614.25;12249346;19;20021;-81
2022/10/21 15:03:59;;;;;;;6.40;3.13;;;18.40;56.80;;;17.48;57.86;100657.31;12235162;19;20054;-81
2022/10/21 15:08:20;;;;;;;3.45;3.15;;;18.40;56.80;;;17.52;57.85;100657.03;12248825;19;20030;-81
2022/10/21 15:12:24;;;;;;;7.07;3.00;;;18.40;56.80;;;17.53;57.80;100653.44;12259990;19;20010;-80
2022/10/21 15:16:29;;;;;;;6.25;3.25;;;18.40;56.80;;;17.06;58.00;100573.88;12253136;19;20014;-80
2022/10/21 15:20:31;;;;;;;3.28;2.97;;;18.60;56.90;;;17.47;57.80;100641.59;12259132;19;20480;-80
2022/10/21 15:24:44;;;;;;;4.18;2.70;;;18.40;56.80;;;17.46;58.00;100639.91;12257791;19;20011;-82
2022/10/21 15:28:45;;;;;;;3.60;3.30;;;18.40;56.90;;;17.43;57.76;100637.53;12259855;19;20448;-82
2022/10/21 15:32:48;;;;;;;4.15;3.15;;;18.30;56.90;;;17.49;57.94;100650.22;12259661;19;20027;-82
2022/10/21 15:36:50;;;;;;;4.65;2.80;;;18.50;56.80;;;17.16;57.73;100596.69;12263235;19;20554;-80
2022/10/21 15:40:54;;;;;;;3.97;3.60;;;18.40;56.90;;;17.45;57.73;100646.19;12269324;19;20026;-83
2022/10/21 15:45:00;;;;;;;4.13;3.17;;;18.40;56.90;;;17.30;57.64;100618.44;12248871;19;20046;-82
2022/10/21 15:49:14;;;;;;;5.30;3.72;;;18.30;57.20;;;17.46;57.75;100651.31;12264444;19;20053;-80
2022/10/21 15:53:15;;;;;;;5.63;3.55;;;18.30;56.90;;;17.46;57.86;100645.19;12251218;19;20021;-80
2022/10/21 15:57:20;;;;;;;5.45;3.78;;;18.30;57.00;;;17.44;57.74;100644.50;12259223;19;20010;-80
2022/10/21 16:01:22;;;;;;;4.28;3.80;;;18.30;57.10;;;17.41;57.63;100639.47;12264401;19;20022;-83
2022/10/21 16:05:24;;;;;;;4.28;3.35;;;18.30;57.10;;;17.31;58.00;100622.75;12262945;19;20010;-82
2022/10/21 16:09:28;;;;;;;3.83;3.33;;;18.30;57.10;;;17.20;57.62;100607.81;12261438;19;20091;-82
2022/10/21 16:13:30;;;;;;;5.15;3.88;;;18.20;57.10;;;17.37;57.86;100631.00;12261133;19;20014;-81
2022/10/21 16:17:37;;;;;;;4.25;3.85;;;18.20;57.10;;;17.34;58.01;100633.91;12263516;19;20022;-83
2022/10/21 16:21:39;;;;;;;5.47;3.75;;;18.20;57.10;;;16.96;57.63;100581.75;12259912;19;20013;-82
2022/10/21 16:25:41;;;;;;;5.03;3.53;;;18.40;57.30;;;17.27;57.95;100629.25;12250555;19;20781;-83
2022/10/21 16:29:43;;;;;;;4.60;3.83;;;18.10;57.60;;;17.12;57.71;100612.91;12256219;19;20027;-83
2022/10/21 16:33:45;;;;;;;4.15;3.75;;;18.10;57.30;;;17.28;57.74;100636.22;12261089;19;20360;-82
2022/10/21 16:37:47;;;;;;;4.28;3.63;;;18.10;57.80;;;17.25;57.85;100635.53;12273524;19;20081;-83
2022/10/21 16:41:50;;;;;;;7.45;4.82;;;18.10;57.40;;;17.29;58.06;100644.00;12267487;19;20018;-82
2022/10/21 16:45:52;;;;;;;5.63;5.13;;;18.10;57.50;;;17.14;58.07;100634.72;12260621;19;20011;-83
2022/10/21 16:50:01;;;;;;;5.55;4.55;;;18.30;57.70;;;17.22;58.04;100648.13;12259935;19;20490;-82
2022/10/21 16:54:04;;;;;;;6.05;4.97;;;18.00;57.70;;;17.19;58.09;100643.09;12256737;19;20010;-82
2022/10/21 16:58:05;;;;;;;7.72;5.18;;;18.10;57.80;;;17.27;57.93;100655.66;12256801;19;20452;-82
2022/10/21 17:02:16;;;;;;;6.75;4.50;;;18.10;57.90;;;17.25;57.97;100655.78;12253434;19;20464;-82
2022/10/21 17:06:23;;;;;;;5.65;4.38;;;18.10;58.10;;;17.19;57.98;100649.22;12253537;19;20017;-81